Arnoldsville, GA

10:30 AM EDT on May 24, 2015 (GMT -0400)
Wyndfield | | Change Station
CLOSE
Current Station
Personal Weather Station
Location: Athens-Clarke County, GA
Elevation: 647 ft
Nearby Weather Stations

Elev 647 ft 33.91 °N, 83.30 °W | Updated 40 seconds ago

Partly Cloudy
Partly Cloudy
71.7 °F
Feels Like 75 °F
N
1.0
Wind Variable Wind from South
Gusts 0.0 mph

Today
High -- | Low -- °F
--% Chance of Precip.
Yesterday
High -- | Low -- °F
Precip. -- in
6:26 AM 8:33 PM
Waxing Crescent, 39% visible
Pressure 30.37 in
Visibility 10.0 miles
Clouds Scattered Clouds 4100 ft
Scattered Clouds 5000 ft
Heat Index 75 °F
Dew Point 60 °F
Humidity 67%
Rainfall 0.00 in
Snow Depth Not available.
UV 4 out of 12
Pollen 6.20 out of 12
Air Quality Not available.
Flu Activity Sporadic
METAR KAHN 241351Z 08004KT 10SM SCT041 SCT050 22/16 A3038 RMK AO2 SLP284 T02220156

More Conditions Fewer Conditions

Pressure 30.37 in
Visibility 10.0 miles
Clouds Scattered Clouds 4100 ft
Scattered Clouds 5000 ft
Heat Index 75 °F
Dew Point 60 °F
Humidity 67%
Rainfall 0.00 in
Snow Depth Not available.
UV 4 out of 12
Pollen 6.20 out of 12
Air Quality Not available.
Flu Activity Sporadic
METAR KAHN 241351Z 08004KT 10SM SCT041 SCT050 22/16 A3038 RMK AO2 SLP284 T02220156

More Conditions Fewer Conditions

10-Day Weather Forecast

Almanac

Astronomy

May. 24, 2015 Rise Set
Actual Time
Civil Twilight
Nautical Twilight
Astronomical Twilight
Moon
Length of Visible Light
Length of Day
Tomorrow will be .
, % of the Moon is Illuminated

Today's Extremes

State Highs State Lows

Community

WunderPhotos

Upload Photos

1,823,747 photos uploaded!

WunderBlogs® & News

Nearby

Air Quality

  Air Quality AQ Index Pollutant
Not available.

Snow Depth

Station Depth Elevation

Earthquake Activity

City Distance Mag. Time & Date
Minimum magnitude displayed is 2.5.

Coastal Water Temperatures

Place Temperature

Stations

Nearby Weather Stations

Station Location Temp. Windchill Dew Point Humidity Wind Precip. Elev Updated Type